sensor_id;sensor_type;location;lat;lon;timestamp;temperature;humidity
70107;DHT22;57473;37.508;15.080;2023-05-10T00:01:45;16.00;75.00
70107;DHT22;57473;37.508;15.080;2023-05-10T00:04:12;16.00;75.30
70107;DHT22;57473;37.508;15.080;2023-05-10T00:06:40;15.90;75.20
70107;DHT22;57473;37.508;15.080;2023-05-10T00:09:07;15.90;75.00
70107;DHT22;57473;37.508;15.080;2023-05-10T00:11:35;15.90;75.50
70107;DHT22;57473;37.508;15.080;2023-05-10T00:14:02;15.90;76.20
70107;DHT22;57473;37.508;15.080;2023-05-10T00:16:30;15.90;76.80
70107;DHT22;57473;37.508;15.080;2023-05-10T00:18:57;15.90;77.80
70107;DHT22;57473;37.508;15.080;2023-05-10T00:21:24;15.90;78.30
70107;DHT22;57473;37.508;15.080;2023-05-10T00:23:52;15.90;78.10
70107;DHT22;57473;37.508;15.080;2023-05-10T00:26:19;15.80;77.70
70107;DHT22;57473;37.508;15.080;2023-05-10T00:28:52;15.80;77.50
70107;DHT22;57473;37.508;15.080;2023-05-10T00:31:20;15.80;77.30
70107;DHT22;57473;37.508;15.080;2023-05-10T00:33:50;15.80;76.90
70107;DHT22;57473;37.508;15.080;2023-05-10T00:36:18;15.80;76.70
70107;DHT22;57473;37.508;15.080;2023-05-10T00:38:45;15.80;76.60
70107;DHT22;57473;37.508;15.080;2023-05-10T00:41:12;15.80;76.50
70107;DHT22;57473;37.508;15.080;2023-05-10T00:43:42;15.90;76.30
70107;DHT22;57473;37.508;15.080;2023-05-10T00:46:09;15.90;76.40
70107;DHT22;57473;37.508;15.080;2023-05-10T00:48:37;15.90;76.50
70107;DHT22;57473;37.508;15.080;2023-05-10T00:51:05;15.90;76.50
70107;DHT22;57473;37.508;15.080;2023-05-10T00:53:34;15.90;76.30
70107;DHT22;57473;37.508;15.080;2023-05-10T00:56:02;15.90;76.40
70107;DHT22;57473;37.508;15.080;2023-05-10T00:58:31;15.90;76.60
70107;DHT22;57473;37.508;15.080;2023-05-10T01:00:58;15.90;76.80
70107;DHT22;57473;37.508;15.080;2023-05-10T01:03:26;15.90;77.00
70107;DHT22;57473;37.508;15.080;2023-05-10T01:05:55;15.90;77.10
70107;DHT22;57473;37.508;15.080;2023-05-10T01:08:24;15.90;77.20
70107;DHT22;57473;37.508;15.080;2023-05-10T01:10:51;15.90;77.30
70107;DHT22;57473;37.508;15.080;2023-05-10T01:13:36;15.90;77.50
70107;DHT22;57473;37.508;15.080;2023-05-10T01:16:04;15.90;77.60
70107;DHT22;57473;37.508;15.080;2023-05-10T01:18:36;15.90;77.60
70107;DHT22;57473;37.508;15.080;2023-05-10T01:35:40;15.80;78.70
70107;DHT22;57473;37.508;15.080;2023-05-10T01:38:21;15.70;79.10
70107;DHT22;57473;37.508;15.080;2023-05-10T01:43:30;15.70;80.00
70107;DHT22;57473;37.508;15.080;2023-05-10T01:46:07;15.70;80.80
70107;DHT22;57473;37.508;15.080;2023-05-10T01:48:47;15.70;80.90
70107;DHT22;57473;37.508;15.080;2023-05-10T01:51:19;15.60;81.20
70107;DHT22;57473;37.508;15.080;2023-05-10T01:53:48;15.60;81.70
70107;DHT22;57473;37.508;15.080;2023-05-10T01:56:17;15.60;81.70
70107;DHT22;57473;37.508;15.080;2023-05-10T01:58:48;15.60;81.30
70107;DHT22;57473;37.508;15.080;2023-05-10T02:01:20;15.60;81.40
70107;DHT22;57473;37.508;15.080;2023-05-10T02:03:51;15.60;81.90
70107;DHT22;57473;37.508;15.080;2023-05-10T02:06:20;15.60;81.90
70107;DHT22;57473;37.508;15.080;2023-05-10T02:08:49;15.60;81.80
70107;DHT22;57473;37.508;15.080;2023-05-10T02:11:18;15.60;81.10
70107;DHT22;57473;37.508;15.080;2023-05-10T02:13:49;15.60;79.40
70107;DHT22;57473;37.508;15.080;2023-05-10T02:16:18;15.60;79.10
70107;DHT22;57473;37.508;15.080;2023-05-10T02:18:50;15.60;79.00
70107;DHT22;57473;37.508;15.080;2023-05-10T02:21:20;15.60;78.70
70107;DHT22;57473;37.508;15.080;2023-05-10T02:23:50;15.60;78.60
70107;DHT22;57473;37.508;15.080;2023-05-10T02:26:18;15.60;78.70
70107;DHT22;57473;37.508;15.080;2023-05-10T02:28:49;15.60;78.50
70107;DHT22;57473;37.508;15.080;2023-05-10T02:31:17;15.60;78.50
70107;DHT22;57473;37.508;15.080;2023-05-10T02:33:46;15.60;78.80
70107;DHT22;57473;37.508;15.080;2023-05-10T02:36:14;15.60;78.70
70107;DHT22;57473;37.508;15.080;2023-05-10T02:38:45;15.60;79.20
70107;DHT22;57473;37.508;15.080;2023-05-10T02:41:14;15.60;79.10
70107;DHT22;57473;37.508;15.080;2023-05-10T02:43:42;15.60;78.80
70107;DHT22;57473;37.508;15.080;2023-05-10T02:46:10;15.60;78.70
70107;DHT22;57473;37.508;15.080;2023-05-10T02:48:39;15.60;78.50
70107;DHT22;57473;37.508;15.080;2023-05-10T02:51:07;15.70;78.50
70107;DHT22;57473;37.508;15.080;2023-05-10T02:53:36;15.70;78.40
70107;DHT22;57473;37.508;15.080;2023-05-10T02:56:15;15.70;78.20
70107;DHT22;57473;37.508;15.080;2023-05-10T02:58:44;15.70;78.00
70107;DHT22;57473;37.508;15.080;2023-05-10T03:01:11;15.70;76.80
70107;DHT22;57473;37.508;15.080;2023-05-10T03:03:38;15.70;76.10
70107;DHT22;57473;37.508;15.080;2023-05-10T03:06:07;15.70;75.90
70107;DHT22;57473;37.508;15.080;2023-05-10T03:08:34;15.80;74.80
70107;DHT22;57473;37.508;15.080;2023-05-10T03:14:16;15.80;73.70
70107;DHT22;57473;37.508;15.080;2023-05-10T03:16:56;15.90;73.50
70107;DHT22;57473;37.508;15.080;2023-05-10T03:19:30;15.90;73.70
70107;DHT22;57473;37.508;15.080;2023-05-10T03:22:02;15.90;73.80
70107;DHT22;57473;37.508;15.080;2023-05-10T03:24:34;15.80;74.10
70107;DHT22;57473;37.508;15.080;2023-05-10T03:27:03;15.80;74.40
70107;DHT22;57473;37.508;15.080;2023-05-10T03:29:35;15.80;74.60
70107;DHT22;57473;37.508;15.080;2023-05-10T03:32:04;15.70;75.20
70107;DHT22;57473;37.508;15.080;2023-05-10T03:34:31;15.70;75.40
70107;DHT22;57473;37.508;15.080;2023-05-10T03:36:59;15.60;76.50
70107;DHT22;57473;37.508;15.080;2023-05-10T03:39:30;15.60;77.30
70107;DHT22;57473;37.508;15.080;2023-05-10T03:41:59;15.50;77.30
70107;DHT22;57473;37.508;15.080;2023-05-10T03:44:26;15.50;77.40
70107;DHT22;57473;37.508;15.080;2023-05-10T03:46:54;15.50;75.60
70107;DHT22;57473;37.508;15.080;2023-05-10T03:49:23;15.50;75.40
70107;DHT22;57473;37.508;15.080;2023-05-10T03:51:50;15.50;75.80
70107;DHT22;57473;37.508;15.080;2023-05-10T03:54:18;15.50;76.20
70107;DHT22;57473;37.508;15.080;2023-05-10T03:56:45;15.40;76.30
70107;DHT22;57473;37.508;15.080;2023-05-10T03:59:16;15.40;75.30
70107;DHT22;57473;37.508;15.080;2023-05-10T04:01:43;15.40;75.20
70107;DHT22;57473;37.508;15.080;2023-05-10T04:04:10;15.40;75.80
70107;DHT22;57473;37.508;15.080;2023-05-10T04:06:38;15.50;75.30
70107;DHT22;57473;37.508;15.080;2023-05-10T04:09:05;15.50;75.00
70107;DHT22;57473;37.508;15.080;2023-05-10T04:11:33;15.50;75.10
70107;DHT22;57473;37.508;15.080;2023-05-10T04:14:00;15.60;75.60
70107;DHT22;57473;37.508;15.080;2023-05-10T04:16:27;15.60;75.30
70107;DHT22;57473;37.508;15.080;2023-05-10T04:18:55;15.60;74.80
70107;DHT22;57473;37.508;15.080;2023-05-10T04:21:24;15.70;74.50
70107;DHT22;57473;37.508;15.080;2023-05-10T04:23:51;15.70;74.00
70107;DHT22;57473;37.508;15.080;2023-05-10T04:26:18;15.80;73.50
70107;DHT22;57473;37.508;15.080;2023-05-10T04:28:47;15.80;73.40
70107;DHT22;57473;37.508;15.080;2023-05-10T04:31:14;15.90;73.30
70107;DHT22;57473;37.508;15.080;2023-05-10T04:33:41;15.90;72.80
70107;DHT22;57473;37.508;15.080;2023-05-10T04:36:09;16.00;72.60
70107;DHT22;57473;37.508;15.080;2023-05-10T04:38:36;16.10;72.20
70107;DHT22;57473;37.508;15.080;2023-05-10T04:41:08;16.10;71.70
70107;DHT22;57473;37.508;15.080;2023-05-10T04:43:36;16.20;71.50
70107;DHT22;57473;37.508;15.080;2023-05-10T04:46:04;16.30;71.20
70107;DHT22;57473;37.508;15.080;2023-05-10T04:48:32;16.30;71.10
70107;DHT22;57473;37.508;15.080;2023-05-10T04:51:00;16.40;70.60
70107;DHT22;57473;37.508;15.080;2023-05-10T04:53:27;16.50;70.30
70107;DHT22;57473;37.508;15.080;2023-05-10T04:55:54;16.60;70.10
70107;DHT22;57473;37.508;15.080;2023-05-10T04:58:22;16.70;69.80
70107;DHT22;57473;37.508;15.080;2023-05-10T05:00:49;16.80;69.40
70107;DHT22;57473;37.508;15.080;2023-05-10T05:03:17;16.80;69.20
70107;DHT22;57473;37.508;15.080;2023-05-10T05:05:44;17.00;68.70
70107;DHT22;57473;37.508;15.080;2023-05-10T05:08:11;17.10;67.90
70107;DHT22;57473;37.508;15.080;2023-05-10T05:10:40;17.20;67.90
70107;DHT22;57473;37.508;15.080;2023-05-10T05:13:07;17.30;67.50
70107;DHT22;57473;37.508;15.080;2023-05-10T05:15:34;17.50;66.90
70107;DHT22;57473;37.508;15.080;2023-05-10T05:18:02;17.60;67.40
70107;DHT22;57473;37.508;15.080;2023-05-10T05:20:32;17.70;66.60
70107;DHT22;57473;37.508;15.080;2023-05-10T05:23:00;17.80;66.00
70107;DHT22;57473;37.508;15.080;2023-05-10T05:25:28;17.90;66.10
70107;DHT22;57473;37.508;15.080;2023-05-10T05:27:55;18.00;65.10
70107;DHT22;57473;37.508;15.080;2023-05-10T05:30:23;18.10;64.60
70107;DHT22;57473;37.508;15.080;2023-05-10T05:32:50;18.20;63.80
70107;DHT22;57473;37.508;15.080;2023-05-10T05:35:17;18.30;63.60
70107;DHT22;57473;37.508;15.080;2023-05-10T05:37:45;18.40;63.50
70107;DHT22;57473;37.508;15.080;2023-05-10T05:40:13;18.40;63.90
70107;DHT22;57473;37.508;15.080;2023-05-10T05:42:41;18.40;64.50
70107;DHT22;57473;37.508;15.080;2023-05-10T05:45:09;18.40;64.90
70107;DHT22;57473;37.508;15.080;2023-05-10T05:47:40;18.40;66.30
70107;DHT22;57473;37.508;15.080;2023-05-10T05:50:08;18.40;67.90
70107;DHT22;57473;37.508;15.080;2023-05-10T05:52:35;18.50;68.10
70107;DHT22;57473;37.508;15.080;2023-05-10T05:55:03;18.60;67.80
70107;DHT22;57473;37.508;15.080;2023-05-10T05:57:30;18.70;67.70
70107;DHT22;57473;37.508;15.080;2023-05-10T05:59:58;18.70;67.00
70107;DHT22;57473;37.508;15.080;2023-05-10T06:02:26;18.70;65.90
70107;DHT22;57473;37.508;15.080;2023-05-10T06:04:53;18.70;66.00
70107;DHT22;57473;37.508;15.080;2023-05-10T06:07:21;18.80;65.80
70107;DHT22;57473;37.508;15.080;2023-05-10T06:09:48;18.80;66.40
70107;DHT22;57473;37.508;15.080;2023-05-10T06:12:16;18.90;65.40
70107;DHT22;57473;37.508;15.080;2023-05-10T06:14:54;19.00;64.80
70107;DHT22;57473;37.508;15.080;2023-05-10T06:17:22;19.20;64.20
70107;DHT22;57473;37.508;15.080;2023-05-10T06:19:49;19.10;64.20
70107;DHT22;57473;37.508;15.080;2023-05-10T06:22:20;19.00;65.50
70107;DHT22;57473;37.508;15.080;2023-05-10T06:24:49;19.00;65.60
70107;DHT22;57473;37.508;15.080;2023-05-10T06:27:17;19.10;65.40
70107;DHT22;57473;37.508;15.080;2023-05-10T06:29:44;19.20;64.30
70107;DHT22;57473;37.508;15.080;2023-05-10T06:32:11;19.30;64.80
70107;DHT22;57473;37.508;15.080;2023-05-10T06:34:38;19.30;65.30
70107;DHT22;57473;37.508;15.080;2023-05-10T06:37:06;19.30;65.70
70107;DHT22;57473;37.508;15.080;2023-05-10T06:39:33;19.40;64.90
70107;DHT22;57473;37.508;15.080;2023-05-10T06:42:01;19.40;65.10
70107;DHT22;57473;37.508;15.080;2023-05-10T06:44:33;19.40;65.70
70107;DHT22;57473;37.508;15.080;2023-05-10T06:47:01;19.60;65.10
70107;DHT22;57473;37.508;15.080;2023-05-10T06:49:28;19.60;65.20
70107;DHT22;57473;37.508;15.080;2023-05-10T06:51:56;19.80;64.80
70107;DHT22;57473;37.508;15.080;2023-05-10T06:54:23;19.70;64.90
70107;DHT22;57473;37.508;15.080;2023-05-10T06:56:51;19.50;65.30
70107;DHT22;57473;37.508;15.080;2023-05-10T06:59:18;19.50;65.80
70107;DHT22;57473;37.508;15.080;2023-05-10T07:01:46;19.40;65.90
70107;DHT22;57473;37.508;15.080;2023-05-10T07:04:14;19.60;65.50
70107;DHT22;57473;37.508;15.080;2023-05-10T07:06:41;19.40;66.10
70107;DHT22;57473;37.508;15.080;2023-05-10T07:09:08;19.40;66.50
70107;DHT22;57473;37.508;15.080;2023-05-10T07:11:36;19.50;65.70
70107;DHT22;57473;37.508;15.080;2023-05-10T07:14:04;19.70;64.40
70107;DHT22;57473;37.508;15.080;2023-05-10T07:16:32;19.80;65.60
70107;DHT22;57473;37.508;15.080;2023-05-10T07:18:59;19.90;65.70
70107;DHT22;57473;37.508;15.080;2023-05-10T07:21:26;19.80;66.00
70107;DHT22;57473;37.508;15.080;2023-05-10T07:23:55;20.10;66.10
70107;DHT22;57473;37.508;15.080;2023-05-10T07:26:23;20.30;64.70
70107;DHT22;57473;37.508;15.080;2023-05-10T07:28:51;20.40;63.70
70107;DHT22;57473;37.508;15.080;2023-05-10T07:31:18;20.20;63.80
70107;DHT22;57473;37.508;15.080;2023-05-10T07:33:45;20.30;63.80
70107;DHT22;57473;37.508;15.080;2023-05-10T07:36:16;20.10;64.60
70107;DHT22;57473;37.508;15.080;2023-05-10T07:38:46;20.30;64.50
70107;DHT22;57473;37.508;15.080;2023-05-10T07:41:14;20.30;64.30
70107;DHT22;57473;37.508;15.080;2023-05-10T07:43:42;20.30;64.70
70107;DHT22;57473;37.508;15.080;2023-05-10T07:46:09;20.30;64.90
70107;DHT22;57473;37.508;15.080;2023-05-10T07:48:38;20.30;65.10
70107;DHT22;57473;37.508;15.080;2023-05-10T07:51:05;20.40;65.00
70107;DHT22;57473;37.508;15.080;2023-05-10T07:53:34;20.20;65.80
70107;DHT22;57473;37.508;15.080;2023-05-10T07:56:21;20.30;65.80
70107;DHT22;57473;37.508;15.080;2023-05-10T07:58:50;20.50;64.90
70107;DHT22;57473;37.508;15.080;2023-05-10T08:01:18;20.80;63.20
70107;DHT22;57473;37.508;15.080;2023-05-10T08:03:46;21.10;62.60
70107;DHT22;57473;37.508;15.080;2023-05-10T08:06:16;21.30;61.80
70107;DHT22;57473;37.508;15.080;2023-05-10T08:08:45;21.40;61.30
70107;DHT22;57473;37.508;15.080;2023-05-10T08:11:21;21.20;61.00
70107;DHT22;57473;37.508;15.080;2023-05-10T08:13:57;21.30;61.00
70107;DHT22;57473;37.508;15.080;2023-05-10T08:16:27;21.30;61.60
70107;DHT22;57473;37.508;15.080;2023-05-10T08:19:00;21.30;61.70
70107;DHT22;57473;37.508;15.080;2023-05-10T08:21:27;21.20;62.00
70107;DHT22;57473;37.508;15.080;2023-05-10T08:23:55;21.20;63.10
70107;DHT22;57473;37.508;15.080;2023-05-10T08:26:25;21.20;62.70
70107;DHT22;57473;37.508;15.080;2023-05-10T08:28:57;21.30;62.40
70107;DHT22;57473;37.508;15.080;2023-05-10T08:31:34;21.50;62.00
70107;DHT22;57473;37.508;15.080;2023-05-10T08:34:06;21.50;61.30
70107;DHT22;57473;37.508;15.080;2023-05-10T08:36:36;21.10;62.00
70107;DHT22;57473;37.508;15.080;2023-05-10T08:39:10;20.80;63.10
70107;DHT22;57473;37.508;15.080;2023-05-10T08:42:02;21.00;63.20
70107;DHT22;57473;37.508;15.080;2023-05-10T08:44:35;21.10;63.50
70107;DHT22;57473;37.508;15.080;2023-05-10T08:47:06;21.20;63.50
70107;DHT22;57473;37.508;15.080;2023-05-10T08:49:37;21.30;63.50
70107;DHT22;57473;37.508;15.080;2023-05-10T08:52:19;21.70;62.20
70107;DHT22;57473;37.508;15.080;2023-05-10T08:54:48;21.70;62.10
70107;DHT22;57473;37.508;15.080;2023-05-10T08:57:16;21.40;63.30
70107;DHT22;57473;37.508;15.080;2023-05-10T08:59:45;21.50;63.10
70107;DHT22;57473;37.508;15.080;2023-05-10T09:02:15;21.60;63.40
70107;DHT22;57473;37.508;15.080;2023-05-10T09:04:44;21.40;63.70
70107;DHT22;57473;37.508;15.080;2023-05-10T09:07:19;21.90;62.10
70107;DHT22;57473;37.508;15.080;2023-05-10T09:09:51;22.10;60.50
70107;DHT22;57473;37.508;15.080;2023-05-10T09:12:27;22.20;59.20
70107;DHT22;57473;37.508;15.080;2023-05-10T09:15:01;22.40;57.90
70107;DHT22;57473;37.508;15.080;2023-05-10T09:17:35;22.30;59.00
70107;DHT22;57473;37.508;15.080;2023-05-10T09:20:04;21.70;61.40
70107;DHT22;57473;37.508;15.080;2023-05-10T09:22:35;21.40;62.80
70107;DHT22;57473;37.508;15.080;2023-05-10T09:25:16;21.60;62.50
70107;DHT22;57473;37.508;15.080;2023-05-10T09:27:47;21.70;58.20
70107;DHT22;57473;37.508;15.080;2023-05-10T09:30:28;21.80;55.90
70107;DHT22;57473;37.508;15.080;2023-05-10T09:32:57;21.70;59.20
70107;DHT22;57473;37.508;15.080;2023-05-10T09:35:30;21.80;60.50
70107;DHT22;57473;37.508;15.080;2023-05-10T09:38:04;21.50;60.40
70107;DHT22;57473;37.508;15.080;2023-05-10T09:40:34;21.40;61.50
70107;DHT22;57473;37.508;15.080;2023-05-10T09:43:07;21.20;61.00
70107;DHT22;57473;37.508;15.080;2023-05-10T09:45:35;21.10;60.80
70107;DHT22;57473;37.508;15.080;2023-05-10T09:48:07;21.10;59.70
70107;DHT22;57473;37.508;15.080;2023-05-10T09:50:38;21.10;59.80
70107;DHT22;57473;37.508;15.080;2023-05-10T09:53:07;21.00;61.10
70107;DHT22;57473;37.508;15.080;2023-05-10T09:55:44;20.60;64.80
70107;DHT22;57473;37.508;15.080;2023-05-10T09:58:13;20.00;66.40
70107;DHT22;57473;37.508;15.080;2023-05-10T10:00:43;19.50;63.70
70107;DHT22;57473;37.508;15.080;2023-05-10T10:03:21;19.10;65.40
70107;DHT22;57473;37.508;15.080;2023-05-10T10:05:51;18.90;68.20
70107;DHT22;57473;37.508;15.080;2023-05-10T10:08:20;18.80;71.80
70107;DHT22;57473;37.508;15.080;2023-05-10T10:10:47;18.90;68.30
70107;DHT22;57473;37.508;15.080;2023-05-10T10:13:21;19.20;66.40
70107;DHT22;57473;37.508;15.080;2023-05-10T10:15:52;19.40;66.60
70107;DHT22;57473;37.508;15.080;2023-05-10T10:18:19;19.70;66.20
70107;DHT22;57473;37.508;15.080;2023-05-10T10:20:52;19.90;64.20
70107;DHT22;57473;37.508;15.080;2023-05-10T10:23:29;20.10;60.40
70107;DHT22;57473;37.508;15.080;2023-05-10T10:26:04;20.30;59.20
70107;DHT22;57473;37.508;15.080;2023-05-10T10:28:54;20.30;57.80
70107;DHT22;57473;37.508;15.080;2023-05-10T10:31:55;20.40;55.50
70107;DHT22;57473;37.508;15.080;2023-05-10T10:34:33;20.50;55.40
70107;DHT22;57473;37.508;15.080;2023-05-10T10:37:05;20.40;51.50
70107;DHT22;57473;37.508;15.080;2023-05-10T10:39:37;20.50;52.40
70107;DHT22;57473;37.508;15.080;2023-05-10T10:42:08;20.50;53.20
70107;DHT22;57473;37.508;15.080;2023-05-10T10:44:37;20.50;54.00
70107;DHT22;57473;37.508;15.080;2023-05-10T10:47:10;20.50;53.40
70107;DHT22;57473;37.508;15.080;2023-05-10T10:52:33;20.40;56.40
70107;DHT22;57473;37.508;15.080;2023-05-10T10:55:17;20.60;57.90
70107;DHT22;57473;37.508;15.080;2023-05-10T10:57:55;20.60;61.70
70107;DHT22;57473;37.508;15.080;2023-05-10T11:00:40;20.60;64.70
70107;DHT22;57473;37.508;15.080;2023-05-10T11:03:12;20.70;65.20
70107;DHT22;57473;37.508;15.080;2023-05-10T11:05:46;20.80;63.40
70107;DHT22;57473;37.508;15.080;2023-05-10T11:08:19;20.90;63.20
70107;DHT22;57473;37.508;15.080;2023-05-10T11:13:32;20.80;59.50
70107;DHT22;57473;37.508;15.080;2023-05-10T11:16:18;20.80;56.40
70107;DHT22;57473;37.508;15.080;2023-05-10T11:19:07;20.90;55.00
70107;DHT22;57473;37.508;15.080;2023-05-10T11:24:21;20.90;55.80
70107;DHT22;57473;37.508;15.080;2023-05-10T11:26:52;20.70;57.80
70107;DHT22;57473;37.508;15.080;2023-05-10T11:29:20;20.70;60.30
70107;DHT22;57473;37.508;15.080;2023-05-10T11:31:49;20.40;63.30
70107;DHT22;57473;37.508;15.080;2023-05-10T11:34:30;20.30;63.80
70107;DHT22;57473;37.508;15.080;2023-05-10T11:37:01;20.20;62.90
70107;DHT22;57473;37.508;15.080;2023-05-10T11:39:30;20.40;60.90
70107;DHT22;57473;37.508;15.080;2023-05-10T11:41:58;20.60;59.60
70107;DHT22;57473;37.508;15.080;2023-05-10T11:44:32;20.80;59.70
70107;DHT22;57473;37.508;15.080;2023-05-10T11:47:02;20.70;59.60
70107;DHT22;57473;37.508;15.080;2023-05-10T11:49:30;20.60;60.60
70107;DHT22;57473;37.508;15.080;2023-05-10T11:52:05;20.50;60.70
70107;DHT22;57473;37.508;15.080;2023-05-10T11:54:33;20.70;60.70
70107;DHT22;57473;37.508;15.080;2023-05-10T11:57:02;21.10;59.40
70107;DHT22;57473;37.508;15.080;2023-05-10T11:59:30;21.40;58.10
70107;DHT22;57473;37.508;15.080;2023-05-10T12:01:57;21.40;57.60
70107;DHT22;57473;37.508;15.080;2023-05-10T12:04:25;21.40;59.20
70107;DHT22;57473;37.508;15.080;2023-05-10T12:06:54;21.50;59.90
70107;DHT22;57473;37.508;15.080;2023-05-10T12:09:22;21.50;58.80
70107;DHT22;57473;37.508;15.080;2023-05-10T12:11:55;21.60;58.20
70107;DHT22;57473;37.508;15.080;2023-05-10T12:14:26;22.10;58.80
70107;DHT22;57473;37.508;15.080;2023-05-10T12:16:53;22.10;58.40
70107;DHT22;57473;37.508;15.080;2023-05-10T12:19:21;22.50;58.30
70107;DHT22;57473;37.508;15.080;2023-05-10T12:21:48;22.60;54.40
70107;DHT22;57473;37.508;15.080;2023-05-10T12:24:16;23.00;53.30
70107;DHT22;57473;37.508;15.080;2023-05-10T12:26:47;22.10;51.40
70107;DHT22;57473;37.508;15.080;2023-05-10T12:29:33;22.00;53.80
70107;DHT22;57473;37.508;15.080;2023-05-10T12:32:02;22.30;51.80
70107;DHT22;57473;37.508;15.080;2023-05-10T12:34:30;22.40;50.60
70107;DHT22;57473;37.508;15.080;2023-05-10T12:37:02;22.20;52.00
70107;DHT22;57473;37.508;15.080;2023-05-10T12:39:43;22.60;51.40
70107;DHT22;57473;37.508;15.080;2023-05-10T12:42:11;22.20;51.30
70107;DHT22;57473;37.508;15.080;2023-05-10T12:44:39;22.30;51.00
70107;DHT22;57473;37.508;15.080;2023-05-10T12:47:07;22.40;50.30
70107;DHT22;57473;37.508;15.080;2023-05-10T12:49:34;22.00;51.20
70107;DHT22;57473;37.508;15.080;2023-05-10T12:52:02;21.90;52.50
70107;DHT22;57473;37.508;15.080;2023-05-10T12:54:29;21.60;53.30
70107;DHT22;57473;37.508;15.080;2023-05-10T12:56:57;21.50;53.30
70107;DHT22;57473;37.508;15.080;2023-05-10T12:59:24;21.20;54.20
70107;DHT22;57473;37.508;15.080;2023-05-10T13:01:52;21.30;52.60
70107;DHT22;57473;37.508;15.080;2023-05-10T13:04:19;21.40;52.70
70107;DHT22;57473;37.508;15.080;2023-05-10T13:06:47;21.40;53.30
70107;DHT22;57473;37.508;15.080;2023-05-10T13:09:14;21.40;53.00
70107;DHT22;57473;37.508;15.080;2023-05-10T13:11:42;21.20;53.90
70107;DHT22;57473;37.508;15.080;2023-05-10T13:14:09;21.30;53.50
70107;DHT22;57473;37.508;15.080;2023-05-10T13:16:36;21.20;53.90
70107;DHT22;57473;37.508;15.080;2023-05-10T13:19:04;21.40;53.20
70107;DHT22;57473;37.508;15.080;2023-05-10T13:21:32;21.30;52.90
70107;DHT22;57473;37.508;15.080;2023-05-10T13:23:59;21.50;51.80
70107;DHT22;57473;37.508;15.080;2023-05-10T13:26:27;21.20;52.00
70107;DHT22;57473;37.508;15.080;2023-05-10T13:28:55;20.80;53.00
70107;DHT22;57473;37.508;15.080;2023-05-10T13:31:22;20.90;52.50
70107;DHT22;57473;37.508;15.080;2023-05-10T13:33:50;20.90;52.40
70107;DHT22;57473;37.508;15.080;2023-05-10T13:36:17;20.90;51.90
70107;DHT22;57473;37.508;15.080;2023-05-10T13:38:44;20.80;53.00
70107;DHT22;57473;37.508;15.080;2023-05-10T13:41:14;20.60;54.10
70107;DHT22;57473;37.508;15.080;2023-05-10T13:43:41;20.60;55.10
70107;DHT22;57473;37.508;15.080;2023-05-10T13:46:08;20.80;56.00
70107;DHT22;57473;37.508;15.080;2023-05-10T13:48:36;20.90;55.80
70107;DHT22;57473;37.508;15.080;2023-05-10T13:51:06;20.70;56.00
70107;DHT22;57473;37.508;15.080;2023-05-10T13:53:33;20.60;56.00
70107;DHT22;57473;37.508;15.080;2023-05-10T13:56:06;20.70;56.30
70107;DHT22;57473;37.508;15.080;2023-05-10T13:58:34;20.80;56.00
70107;DHT22;57473;37.508;15.080;2023-05-10T14:01:02;20.70;56.70
70107;DHT22;57473;37.508;15.080;2023-05-10T14:03:31;20.50;58.40
70107;DHT22;57473;37.508;15.080;2023-05-10T14:05:59;20.00;60.60
70107;DHT22;57473;37.508;15.080;2023-05-10T14:08:27;20.00;61.90
70107;DHT22;57473;37.508;15.080;2023-05-10T14:10:54;19.90;62.50
70107;DHT22;57473;37.508;15.080;2023-05-10T14:13:23;19.70;63.60
70107;DHT22;57473;37.508;15.080;2023-05-10T14:15:53;19.60;64.80
70107;DHT22;57473;37.508;15.080;2023-05-10T14:18:20;19.70;64.50
70107;DHT22;57473;37.508;15.080;2023-05-10T14:20:48;19.40;67.00
70107;DHT22;57473;37.508;15.080;2023-05-10T14:23:15;19.20;67.00
70107;DHT22;57473;37.508;15.080;2023-05-10T14:25:43;19.20;70.00
70107;DHT22;57473;37.508;15.080;2023-05-10T14:28:10;19.20;69.70
70107;DHT22;57473;37.508;15.080;2023-05-10T14:30:39;19.00;69.90
70107;DHT22;57473;37.508;15.080;2023-05-10T14:33:06;18.70;72.40
70107;DHT22;57473;37.508;15.080;2023-05-10T14:35:36;18.50;75.00
70107;DHT22;57473;37.508;15.080;2023-05-10T14:38:04;18.30;77.40
70107;DHT22;57473;37.508;15.080;2023-05-10T14:40:32;18.40;76.80
70107;DHT22;57473;37.508;15.080;2023-05-10T14:43:00;18.50;76.80
70107;DHT22;57473;37.508;15.080;2023-05-10T14:45:28;18.70;76.10
70107;DHT22;57473;37.508;15.080;2023-05-10T14:47:55;19.00;75.70
70107;DHT22;57473;37.508;15.080;2023-05-10T14:50:23;18.90;74.60
70107;DHT22;57473;37.508;15.080;2023-05-10T14:53:02;19.10;73.80
70107;DHT22;57473;37.508;15.080;2023-05-10T14:55:29;19.20;72.90
70107;DHT22;57473;37.508;15.080;2023-05-10T14:57:56;19.10;73.90
70107;DHT22;57473;37.508;15.080;2023-05-10T15:00:25;19.20;75.90
70107;DHT22;57473;37.508;15.080;2023-05-10T15:02:53;19.30;74.40
70107;DHT22;57473;37.508;15.080;2023-05-10T15:05:21;19.40;73.70
70107;DHT22;57473;37.508;15.080;2023-05-10T15:07:49;19.40;73.00
70107;DHT22;57473;37.508;15.080;2023-05-10T15:10:17;19.30;74.80
70107;DHT22;57473;37.508;15.080;2023-05-10T15:12:44;19.20;74.90
70107;DHT22;57473;37.508;15.080;2023-05-10T15:15:12;19.20;74.90
70107;DHT22;57473;37.508;15.080;2023-05-10T15:17:39;19.30;75.30
70107;DHT22;57473;37.508;15.080;2023-05-10T15:20:07;19.50;74.20
70107;DHT22;57473;37.508;15.080;2023-05-10T15:22:34;19.60;73.50
70107;DHT22;57473;37.508;15.080;2023-05-10T15:25:05;19.70;72.10
70107;DHT22;57473;37.508;15.080;2023-05-10T15:27:33;19.80;70.80
70107;DHT22;57473;37.508;15.080;2023-05-10T15:30:00;19.80;71.50
70107;DHT22;57473;37.508;15.080;2023-05-10T15:32:27;19.70;72.60
70107;DHT22;57473;37.508;15.080;2023-05-10T15:34:56;19.60;74.10
70107;DHT22;57473;37.508;15.080;2023-05-10T15:37:23;19.50;74.00
70107;DHT22;57473;37.508;15.080;2023-05-10T15:39:51;19.30;74.10
70107;DHT22;57473;37.508;15.080;2023-05-10T15:42:18;19.30;74.00
70107;DHT22;57473;37.508;15.080;2023-05-10T15:44:46;19.30;74.80
70107;DHT22;57473;37.508;15.080;2023-05-10T15:47:17;19.20;74.70
70107;DHT22;57473;37.508;15.080;2023-05-10T15:49:44;19.10;75.00
70107;DHT22;57473;37.508;15.080;2023-05-10T15:52:12;19.00;77.20
70107;DHT22;57473;37.508;15.080;2023-05-10T15:54:39;19.00;76.70
70107;DHT22;57473;37.508;15.080;2023-05-10T15:57:06;18.80;77.20
70107;DHT22;57473;37.508;15.080;2023-05-10T15:59:34;18.60;78.70